sensor_id;sensor_type;location;lat;lon;timestamp;P1;durP1;ratioP1;P2;durP2;ratioP2
36189;SDS011;22232;50.914;13.858;2022-12-17T00:00:24;126.95;;;48.45;;
36189;SDS011;22232;50.914;13.858;2022-12-17T00:03:11;117.80;;;48.42;;
36189;SDS011;22232;50.914;13.858;2022-12-17T00:05:57;119.18;;;47.20;;
36189;SDS011;22232;50.914;13.858;2022-12-17T00:08:43;126.05;;;51.42;;
36189;SDS011;22232;50.914;13.858;2022-12-17T00:11:29;124.72;;;48.28;;
36189;SDS011;22232;50.914;13.858;2022-12-17T00:14:15;119.05;;;47.40;;
36189;SDS011;22232;50.914;13.858;2022-12-17T00:17:01;127.45;;;50.85;;
36189;SDS011;22232;50.914;13.858;2022-12-17T00:19:47;124.70;;;48.70;;
36189;SDS011;22232;50.914;13.858;2022-12-17T00:22:34;116.07;;;46.85;;
36189;SDS011;22232;50.914;13.858;2022-12-17T00:25:20;128.85;;;51.13;;
36189;SDS011;22232;50.914;13.858;2022-12-17T00:28:09;119.18;;;48.78;;
36189;SDS011;22232;50.914;13.858;2022-12-17T00:30:56;121.65;;;49.15;;
36189;SDS011;22232;50.914;13.858;2022-12-17T00:33:43;117.13;;;47.58;;
36189;SDS011;22232;50.914;13.858;2022-12-17T00:36:31;118.63;;;49.97;;
36189;SDS011;22232;50.914;13.858;2022-12-17T00:39:17;126.28;;;49.85;;
36189;SDS011;22232;50.914;13.858;2022-12-17T00:42:04;125.30;;;49.03;;
36189;SDS011;22232;50.914;13.858;2022-12-17T00:44:50;122.97;;;47.63;;
36189;SDS011;22232;50.914;13.858;2022-12-17T00:47:36;112.57;;;47.10;;
36189;SDS011;22232;50.914;13.858;2022-12-17T00:50:23;114.47;;;47.17;;
36189;SDS011;22232;50.914;13.858;2022-12-17T00:53:09;111.75;;;46.35;;
36189;SDS011;22232;50.914;13.858;2022-12-17T00:55:55;126.72;;;49.13;;
36189;SDS011;22232;50.914;13.858;2022-12-17T00:58:41;127.45;;;48.72;;
36189;SDS011;22232;50.914;13.858;2022-12-17T01:01:27;118.05;;;47.58;;
36189;SDS011;22232;50.914;13.858;2022-12-17T01:04:14;128.95;;;51.78;;
36189;SDS011;22232;50.914;13.858;2022-12-17T01:07:00;115.28;;;47.08;;
36189;SDS011;22232;50.914;13.858;2022-12-17T01:09:47;132.30;;;52.55;;
36189;SDS011;22232;50.914;13.858;2022-12-17T01:12:33;134.32;;;52.80;;
36189;SDS011;22232;50.914;13.858;2022-12-17T01:15:22;126.60;;;49.28;;
36189;SDS011;22232;50.914;13.858;2022-12-17T01:18:08;128.68;;;50.10;;
36189;SDS011;22232;50.914;13.858;2022-12-17T01:20:55;123.28;;;48.58;;
36189;SDS011;22232;50.914;13.858;2022-12-17T01:23:41;125.07;;;50.50;;
36189;SDS011;22232;50.914;13.858;2022-12-17T01:26:27;123.65;;;50.80;;
36189;SDS011;22232;50.914;13.858;2022-12-17T01:29:13;128.57;;;49.95;;
36189;SDS011;22232;50.914;13.858;2022-12-17T01:32:00;135.15;;;52.38;;
36189;SDS011;22232;50.914;13.858;2022-12-17T01:34:46;117.97;;;50.38;;
36189;SDS011;22232;50.914;13.858;2022-12-17T01:37:32;125.45;;;49.25;;
36189;SDS011;22232;50.914;13.858;2022-12-17T01:40:18;135.25;;;51.30;;
36189;SDS011;22232;50.914;13.858;2022-12-17T01:43:29;123.80;;;49.92;;
36189;SDS011;22232;50.914;13.858;2022-12-17T01:46:20;132.75;;;50.65;;
36189;SDS011;22232;50.914;13.858;2022-12-17T01:49:14;123.65;;;49.85;;
36189;SDS011;22232;50.914;13.858;2022-12-17T01:52:04;123.00;;;49.38;;
36189;SDS011;22232;50.914;13.858;2022-12-17T01:54:50;120.50;;;48.22;;
36189;SDS011;22232;50.914;13.858;2022-12-17T01:57:56;121.20;;;46.92;;
36189;SDS011;22232;50.914;13.858;2022-12-17T02:00:43;119.90;;;47.55;;
36189;SDS011;22232;50.914;13.858;2022-12-17T02:03:29;125.57;;;49.42;;
36189;SDS011;22232;50.914;13.858;2022-12-17T02:06:20;123.10;;;49.97;;
36189;SDS011;22232;50.914;13.858;2022-12-17T02:15:39;118.20;;;49.20;;
36189;SDS011;22232;50.914;13.858;2022-12-17T02:18:20;116.93;;;48.33;;
36189;SDS011;22232;50.914;13.858;2022-12-17T02:21:09;130.98;;;49.95;;
36189;SDS011;22232;50.914;13.858;2022-12-17T02:27:02;124.32;;;49.20;;
36189;SDS011;22232;50.914;13.858;2022-12-17T02:29:56;121.05;;;48.78;;
36189;SDS011;22232;50.914;13.858;2022-12-17T02:32:49;123.28;;;50.65;;
36189;SDS011;22232;50.914;13.858;2022-12-17T02:35:40;123.95;;;48.88;;
36189;SDS011;22232;50.914;13.858;2022-12-17T02:38:31;122.35;;;49.50;;
36189;SDS011;22232;50.914;13.858;2022-12-17T02:41:21;132.50;;;51.38;;
36189;SDS011;22232;50.914;13.858;2022-12-17T02:44:16;127.32;;;48.65;;
36189;SDS011;22232;50.914;13.858;2022-12-17T02:47:06;128.43;;;51.28;;
36189;SDS011;22232;50.914;13.858;2022-12-17T02:49:55;117.45;;;48.35;;
36189;SDS011;22232;50.914;13.858;2022-12-17T02:52:46;130.35;;;49.63;;
36189;SDS011;22232;50.914;13.858;2022-12-17T02:55:34;131.10;;;51.55;;
36189;SDS011;22232;50.914;13.858;2022-12-17T02:58:21;116.40;;;47.20;;
36189;SDS011;22232;50.914;13.858;2022-12-17T03:01:08;128.88;;;50.92;;
36189;SDS011;22232;50.914;13.858;2022-12-17T03:03:56;126.47;;;49.42;;
36189;SDS011;22232;50.914;13.858;2022-12-17T03:06:44;118.18;;;48.20;;
36189;SDS011;22232;50.914;13.858;2022-12-17T03:09:30;111.40;;;45.42;;
36189;SDS011;22232;50.914;13.858;2022-12-17T03:12:17;123.72;;;50.33;;
36189;SDS011;22232;50.914;13.858;2022-12-17T03:15:03;118.88;;;48.25;;
36189;SDS011;22232;50.914;13.858;2022-12-17T03:17:49;122.18;;;50.75;;
36189;SDS011;22232;50.914;13.858;2022-12-17T03:20:36;125.78;;;49.42;;
36189;SDS011;22232;50.914;13.858;2022-12-17T03:23:22;126.05;;;49.65;;
36189;SDS011;22232;50.914;13.858;2022-12-17T03:26:08;127.72;;;49.97;;
36189;SDS011;22232;50.914;13.858;2022-12-17T03:28:55;124.22;;;47.72;;
36189;SDS011;22232;50.914;13.858;2022-12-17T03:31:41;114.28;;;48.47;;
36189;SDS011;22232;50.914;13.858;2022-12-17T03:34:27;114.22;;;46.97;;
36189;SDS011;22232;50.914;13.858;2022-12-17T03:37:13;116.35;;;46.28;;
36189;SDS011;22232;50.914;13.858;2022-12-17T03:40:00;115.18;;;47.67;;
36189;SDS011;22232;50.914;13.858;2022-12-17T03:42:46;110.30;;;46.85;;
36189;SDS011;22232;50.914;13.858;2022-12-17T03:45:32;123.28;;;47.05;;
36189;SDS011;22232;50.914;13.858;2022-12-17T03:48:18;118.50;;;46.60;;
36189;SDS011;22232;50.914;13.858;2022-12-17T03:51:05;121.88;;;50.70;;
36189;SDS011;22232;50.914;13.858;2022-12-17T03:53:51;127.22;;;49.70;;
36189;SDS011;22232;50.914;13.858;2022-12-17T03:56:37;120.82;;;49.17;;
36189;SDS011;22232;50.914;13.858;2022-12-17T03:59:23;116.68;;;48.22;;
36189;SDS011;22232;50.914;13.858;2022-12-17T04:02:09;133.48;;;49.58;;
36189;SDS011;22232;50.914;13.858;2022-12-17T04:04:56;128.25;;;49.47;;
36189;SDS011;22232;50.914;13.858;2022-12-17T04:07:46;116.60;;;49.03;;
36189;SDS011;22232;50.914;13.858;2022-12-17T04:10:33;125.68;;;50.42;;
36189;SDS011;22232;50.914;13.858;2022-12-17T04:13:20;133.02;;;51.25;;
36189;SDS011;22232;50.914;13.858;2022-12-17T04:16:07;134.27;;;52.97;;
36189;SDS011;22232;50.914;13.858;2022-12-17T04:18:54;125.68;;;48.85;;
36189;SDS011;22232;50.914;13.858;2022-12-17T04:21:40;133.88;;;51.50;;
36189;SDS011;22232;50.914;13.858;2022-12-17T04:24:26;127.03;;;48.85;;
36189;SDS011;22232;50.914;13.858;2022-12-17T04:27:13;130.35;;;51.78;;
36189;SDS011;22232;50.914;13.858;2022-12-17T04:29:59;130.57;;;52.17;;
36189;SDS011;22232;50.914;13.858;2022-12-17T04:32:45;130.38;;;49.95;;
36189;SDS011;22232;50.914;13.858;2022-12-17T04:35:31;130.32;;;48.92;;
36189;SDS011;22232;50.914;13.858;2022-12-17T04:38:17;116.32;;;48.80;;
36189;SDS011;22232;50.914;13.858;2022-12-17T04:41:04;124.03;;;49.95;;
36189;SDS011;22232;50.914;13.858;2022-12-17T04:43:50;137.80;;;52.75;;
36189;SDS011;22232;50.914;13.858;2022-12-17T04:46:36;127.00;;;48.72;;
36189;SDS011;22232;50.914;13.858;2022-12-17T04:49:22;127.45;;;49.55;;
36189;SDS011;22232;50.914;13.858;2022-12-17T04:52:09;128.68;;;47.67;;
36189;SDS011;22232;50.914;13.858;2022-12-17T04:54:55;125.38;;;47.78;;
36189;SDS011;22232;50.914;13.858;2022-12-17T04:57:41;129.15;;;49.75;;
36189;SDS011;22232;50.914;13.858;2022-12-17T05:00:28;123.00;;;50.70;;
36189;SDS011;22232;50.914;13.858;2022-12-17T05:07:43;123.43;;;47.28;;
36189;SDS011;22232;50.914;13.858;2022-12-17T05:10:33;135.77;;;48.50;;
36189;SDS011;22232;50.914;13.858;2022-12-17T05:13:20;121.85;;;46.90;;
36189;SDS011;22232;50.914;13.858;2022-12-17T05:16:06;133.80;;;49.63;;
36189;SDS011;22232;50.914;13.858;2022-12-17T05:18:53;139.25;;;50.83;;
36189;SDS011;22232;50.914;13.858;2022-12-17T05:21:39;125.90;;;48.72;;
36189;SDS011;22232;50.914;13.858;2022-12-17T05:24:25;125.85;;;48.13;;
36189;SDS011;22232;50.914;13.858;2022-12-17T05:27:12;120.82;;;48.95;;
36189;SDS011;22232;50.914;13.858;2022-12-17T05:29:58;119.95;;;45.78;;
36189;SDS011;22232;50.914;13.858;2022-12-17T05:32:44;126.78;;;46.72;;
36189;SDS011;22232;50.914;13.858;2022-12-17T05:35:31;117.35;;;46.22;;
36189;SDS011;22232;50.914;13.858;2022-12-17T05:38:17;121.25;;;46.20;;
36189;SDS011;22232;50.914;13.858;2022-12-17T05:41:03;119.55;;;47.60;;
36189;SDS011;22232;50.914;13.858;2022-12-17T05:43:49;133.38;;;49.88;;
36189;SDS011;22232;50.914;13.858;2022-12-17T05:46:36;120.88;;;46.85;;
36189;SDS011;22232;50.914;13.858;2022-12-17T05:49:22;127.47;;;47.95;;
36189;SDS011;22232;50.914;13.858;2022-12-17T05:52:08;135.30;;;50.72;;
36189;SDS011;22232;50.914;13.858;2022-12-17T05:54:54;127.10;;;48.55;;
36189;SDS011;22232;50.914;13.858;2022-12-17T05:57:41;135.00;;;49.30;;
36189;SDS011;22232;50.914;13.858;2022-12-17T06:00:27;128.25;;;49.83;;
36189;SDS011;22232;50.914;13.858;2022-12-17T06:03:13;125.60;;;47.22;;
36189;SDS011;22232;50.914;13.858;2022-12-17T06:06:00;130.77;;;49.58;;
36189;SDS011;22232;50.914;13.858;2022-12-17T06:08:46;128.43;;;51.10;;
36189;SDS011;22232;50.914;13.858;2022-12-17T06:11:32;129.48;;;49.65;;
36189;SDS011;22232;50.914;13.858;2022-12-17T06:14:35;121.75;;;47.10;;
36189;SDS011;22232;50.914;13.858;2022-12-17T06:17:21;120.85;;;45.30;;
36189;SDS011;22232;50.914;13.858;2022-12-17T06:20:08;119.43;;;46.25;;
36189;SDS011;22232;50.914;13.858;2022-12-17T06:22:58;116.68;;;43.67;;
36189;SDS011;22232;50.914;13.858;2022-12-17T06:28:37;119.45;;;45.05;;
36189;SDS011;22232;50.914;13.858;2022-12-17T06:31:23;138.05;;;47.08;;
36189;SDS011;22232;50.914;13.858;2022-12-17T06:34:09;137.65;;;50.58;;
36189;SDS011;22232;50.914;13.858;2022-12-17T06:36:56;140.18;;;48.53;;
36189;SDS011;22232;50.914;13.858;2022-12-17T06:39:42;120.72;;;47.22;;
36189;SDS011;22232;50.914;13.858;2022-12-17T06:42:28;131.80;;;47.47;;
36189;SDS011;22232;50.914;13.858;2022-12-17T06:45:14;128.35;;;48.28;;
36189;SDS011;22232;50.914;13.858;2022-12-17T06:48:02;137.73;;;47.33;;
36189;SDS011;22232;50.914;13.858;2022-12-17T06:50:49;135.23;;;49.70;;
36189;SDS011;22232;50.914;13.858;2022-12-17T06:53:35;123.38;;;46.17;;
36189;SDS011;22232;50.914;13.858;2022-12-17T06:56:21;123.50;;;44.47;;
36189;SDS011;22232;50.914;13.858;2022-12-17T06:59:08;129.38;;;47.30;;
36189;SDS011;22232;50.914;13.858;2022-12-17T07:01:54;122.60;;;45.60;;
36189;SDS011;22232;50.914;13.858;2022-12-17T07:04:41;113.60;;;44.65;;
36189;SDS011;22232;50.914;13.858;2022-12-17T07:07:27;138.82;;;46.95;;
36189;SDS011;22232;50.914;13.858;2022-12-17T07:10:16;132.80;;;47.35;;
36189;SDS011;22232;50.914;13.858;2022-12-17T07:13:06;123.65;;;44.28;;
36189;SDS011;22232;50.914;13.858;2022-12-17T07:15:52;118.75;;;43.72;;
36189;SDS011;22232;50.914;13.858;2022-12-17T07:18:39;135.45;;;47.47;;
36189;SDS011;22232;50.914;13.858;2022-12-17T07:21:26;124.05;;;45.83;;
36189;SDS011;22232;50.914;13.858;2022-12-17T07:24:12;134.65;;;46.17;;
36189;SDS011;22232;50.914;13.858;2022-12-17T07:26:58;135.45;;;48.08;;
36189;SDS011;22232;50.914;13.858;2022-12-17T07:29:44;129.60;;;45.10;;
36189;SDS011;22232;50.914;13.858;2022-12-17T07:32:31;133.65;;;47.58;;
36189;SDS011;22232;50.914;13.858;2022-12-17T07:35:18;130.15;;;49.22;;
36189;SDS011;22232;50.914;13.858;2022-12-17T07:38:04;142.57;;;49.72;;
36189;SDS011;22232;50.914;13.858;2022-12-17T07:40:50;149.18;;;47.70;;
36189;SDS011;22232;50.914;13.858;2022-12-17T07:43:37;150.95;;;48.17;;
36189;SDS011;22232;50.914;13.858;2022-12-17T07:46:23;146.00;;;49.33;;
36189;SDS011;22232;50.914;13.858;2022-12-17T07:49:09;152.15;;;48.47;;
36189;SDS011;22232;50.914;13.858;2022-12-17T07:51:55;145.90;;;46.50;;
36189;SDS011;22232;50.914;13.858;2022-12-17T07:54:42;149.18;;;49.08;;
36189;SDS011;22232;50.914;13.858;2022-12-17T07:57:28;143.07;;;48.50;;
36189;SDS011;22232;50.914;13.858;2022-12-17T08:00:14;147.40;;;48.17;;
36189;SDS011;22232;50.914;13.858;2022-12-17T08:03:00;134.50;;;46.63;;
36189;SDS011;22232;50.914;13.858;2022-12-17T08:05:47;148.85;;;46.20;;
36189;SDS011;22232;50.914;13.858;2022-12-17T08:08:33;145.45;;;47.20;;
36189;SDS011;22232;50.914;13.858;2022-12-17T08:11:19;137.48;;;47.42;;
36189;SDS011;22232;50.914;13.858;2022-12-17T08:14:06;139.52;;;49.13;;
36189;SDS011;22232;50.914;13.858;2022-12-17T08:16:52;133.35;;;47.15;;
36189;SDS011;22232;50.914;13.858;2022-12-17T08:19:38;152.25;;;48.80;;
36189;SDS011;22232;50.914;13.858;2022-12-17T08:22:24;163.15;;;50.67;;
36189;SDS011;22232;50.914;13.858;2022-12-17T08:25:10;150.05;;;48.75;;
36189;SDS011;22232;50.914;13.858;2022-12-17T08:27:57;155.88;;;48.67;;
36189;SDS011;22232;50.914;13.858;2022-12-17T08:31:04;145.18;;;46.95;;
36189;SDS011;22232;50.914;13.858;2022-12-17T08:33:51;151.18;;;48.08;;
36189;SDS011;22232;50.914;13.858;2022-12-17T08:36:37;139.77;;;45.70;;
36189;SDS011;22232;50.914;13.858;2022-12-17T08:39:24;149.75;;;47.28;;
36189;SDS011;22232;50.914;13.858;2022-12-17T08:42:10;163.68;;;48.40;;
36189;SDS011;22232;50.914;13.858;2022-12-17T08:44:56;158.15;;;47.70;;
36189;SDS011;22232;50.914;13.858;2022-12-17T08:47:42;150.80;;;50.13;;
36189;SDS011;22232;50.914;13.858;2022-12-17T08:50:30;152.85;;;48.70;;
36189;SDS011;22232;50.914;13.858;2022-12-17T08:53:16;150.82;;;48.38;;
36189;SDS011;22232;50.914;13.858;2022-12-17T08:56:03;146.82;;;46.83;;
36189;SDS011;22232;50.914;13.858;2022-12-17T08:58:49;159.05;;;50.10;;
36189;SDS011;22232;50.914;13.858;2022-12-17T09:01:35;150.55;;;49.92;;
36189;SDS011;22232;50.914;13.858;2022-12-17T09:04:21;144.38;;;46.78;;
36189;SDS011;22232;50.914;13.858;2022-12-17T09:07:08;154.05;;;48.33;;
36189;SDS011;22232;50.914;13.858;2022-12-17T09:09:54;136.45;;;46.03;;
36189;SDS011;22232;50.914;13.858;2022-12-17T09:12:42;128.15;;;45.17;;
36189;SDS011;22232;50.914;13.858;2022-12-17T09:15:31;133.73;;;44.53;;
36189;SDS011;22232;50.914;13.858;2022-12-17T09:18:19;122.28;;;43.60;;
36189;SDS011;22232;50.914;13.858;2022-12-17T09:21:06;125.93;;;43.80;;
36189;SDS011;22232;50.914;13.858;2022-12-17T09:23:53;125.47;;;43.03;;
36189;SDS011;22232;50.914;13.858;2022-12-17T09:26:39;128.18;;;43.22;;
36189;SDS011;22232;50.914;13.858;2022-12-17T09:29:25;130.15;;;44.97;;
36189;SDS011;22232;50.914;13.858;2022-12-17T09:32:12;120.97;;;41.97;;
36189;SDS011;22232;50.914;13.858;2022-12-17T09:34:58;122.47;;;40.75;;
36189;SDS011;22232;50.914;13.858;2022-12-17T09:37:49;117.63;;;41.72;;
36189;SDS011;22232;50.914;13.858;2022-12-17T09:40:37;122.15;;;41.05;;
36189;SDS011;22232;50.914;13.858;2022-12-17T09:43:28;138.95;;;42.55;;
36189;SDS011;22232;50.914;13.858;2022-12-17T09:46:35;120.35;;;41.33;;
36189;SDS011;22232;50.914;13.858;2022-12-17T09:49:47;128.85;;;41.33;;
36189;SDS011;22232;50.914;13.858;2022-12-17T09:52:35;120.38;;;39.80;;
36189;SDS011;22232;50.914;13.858;2022-12-17T09:55:30;122.95;;;41.85;;
36189;SDS011;22232;50.914;13.858;2022-12-17T09:58:24;117.68;;;40.85;;
36189;SDS011;22232;50.914;13.858;2022-12-17T10:01:16;122.50;;;41.38;;
36189;SDS011;22232;50.914;13.858;2022-12-17T10:04:14;120.45;;;37.85;;
36189;SDS011;22232;50.914;13.858;2022-12-17T10:07:05;125.25;;;39.40;;
36189;SDS011;22232;50.914;13.858;2022-12-17T10:09:58;105.70;;;36.92;;
36189;SDS011;22232;50.914;13.858;2022-12-17T10:12:54;107.35;;;35.63;;
36189;SDS011;22232;50.914;13.858;2022-12-17T10:15:41;104.35;;;35.38;;
36189;SDS011;22232;50.914;13.858;2022-12-17T10:18:28;96.50;;;33.60;;
36189;SDS011;22232;50.914;13.858;2022-12-17T10:21:14;90.43;;;31.40;;
36189;SDS011;22232;50.914;13.858;2022-12-17T10:24:04;85.60;;;29.38;;
36189;SDS011;22232;50.914;13.858;2022-12-17T10:27:08;78.55;;;27.85;;
36189;SDS011;22232;50.914;13.858;2022-12-17T10:29:55;83.93;;;28.63;;
36189;SDS011;22232;50.914;13.858;2022-12-17T10:32:54;84.60;;;28.50;;
36189;SDS011;22232;50.914;13.858;2022-12-17T10:35:41;82.40;;;28.80;;
36189;SDS011;22232;50.914;13.858;2022-12-17T10:38:28;86.10;;;29.17;;
36189;SDS011;22232;50.914;13.858;2022-12-17T10:41:23;95.03;;;29.48;;
36189;SDS011;22232;50.914;13.858;2022-12-17T10:47:13;80.35;;;28.48;;
36189;SDS011;22232;50.914;13.858;2022-12-17T10:50:08;84.75;;;29.25;;
36189;SDS011;22232;50.914;13.858;2022-12-17T10:52:56;85.15;;;28.33;;
36189;SDS011;22232;50.914;13.858;2022-12-17T10:55:53;84.32;;;30.65;;
36189;SDS011;22232;50.914;13.858;2022-12-17T10:58:44;85.03;;;29.58;;
36189;SDS011;22232;50.914;13.858;2022-12-17T11:01:32;87.57;;;30.88;;
36189;SDS011;22232;50.914;13.858;2022-12-17T11:07:12;91.47;;;30.55;;
36189;SDS011;22232;50.914;13.858;2022-12-17T11:10:05;89.90;;;31.33;;
36189;SDS011;22232;50.914;13.858;2022-12-17T11:13:00;101.53;;;33.25;;
36189;SDS011;22232;50.914;13.858;2022-12-17T11:15:52;105.78;;;33.53;;
36189;SDS011;22232;50.914;13.858;2022-12-17T11:21:34;103.25;;;33.10;;
36189;SDS011;22232;50.914;13.858;2022-12-17T11:24:34;106.65;;;34.70;;
36189;SDS011;22232;50.914;13.858;2022-12-17T11:27:28;102.68;;;31.98;;
36189;SDS011;22232;50.914;13.858;2022-12-17T11:30:20;97.05;;;32.25;;
36189;SDS011;22232;50.914;13.858;2022-12-17T11:39:22;83.60;;;27.50;;
36189;SDS011;22232;50.914;13.858;2022-12-17T11:42:17;83.47;;;28.90;;
36189;SDS011;22232;50.914;13.858;2022-12-17T11:45:21;92.93;;;30.02;;
36189;SDS011;22232;50.914;13.858;2022-12-17T11:48:13;83.10;;;28.33;;
36189;SDS011;22232;50.914;13.858;2022-12-17T11:51:09;75.32;;;26.05;;
36189;SDS011;22232;50.914;13.858;2022-12-17T11:57:15;75.68;;;25.27;;
36189;SDS011;22232;50.914;13.858;2022-12-17T12:00:14;74.40;;;26.15;;
36189;SDS011;22232;50.914;13.858;2022-12-17T12:06:06;73.28;;;26.05;;
36189;SDS011;22232;50.914;13.858;2022-12-17T12:09:22;75.20;;;25.60;;
36189;SDS011;22232;50.914;13.858;2022-12-17T12:18:22;72.38;;;25.73;;
36189;SDS011;22232;50.914;13.858;2022-12-17T12:21:37;75.15;;;25.45;;
36189;SDS011;22232;50.914;13.858;2022-12-17T12:24:39;76.50;;;26.38;;
36189;SDS011;22232;50.914;13.858;2022-12-17T12:30:33;79.70;;;25.83;;
36189;SDS011;22232;50.914;13.858;2022-12-17T12:33:49;82.82;;;26.48;;
36189;SDS011;22232;50.914;13.858;2022-12-17T12:37:10;69.13;;;26.20;;
36189;SDS011;22232;50.914;13.858;2022-12-17T12:40:01;75.65;;;26.67;;
36189;SDS011;22232;50.914;13.858;2022-12-17T12:43:00;71.57;;;26.42;;
36189;SDS011;22232;50.914;13.858;2022-12-17T12:46:06;78.60;;;27.63;;
36189;SDS011;22232;50.914;13.858;2022-12-17T12:52:23;73.60;;;25.02;;
36189;SDS011;22232;50.914;13.858;2022-12-17T12:55:11;75.00;;;25.90;;
36189;SDS011;22232;50.914;13.858;2022-12-17T12:57:58;78.68;;;25.80;;
36189;SDS011;22232;50.914;13.858;2022-12-17T13:03:37;80.72;;;26.13;;
36189;SDS011;22232;50.914;13.858;2022-12-17T13:06:49;77.93;;;26.02;;
36189;SDS011;22232;50.914;13.858;2022-12-17T13:09:21;76.10;;;27.23;;
36189;SDS011;22232;50.914;13.858;2022-12-17T13:17:00;87.05;;;26.20;;
36189;SDS011;22232;50.914;13.858;2022-12-17T13:19:35;85.32;;;26.80;;
36189;SDS011;22232;50.914;13.858;2022-12-17T13:24:51;80.32;;;26.48;;
36189;SDS011;22232;50.914;13.858;2022-12-17T13:36:26;83.32;;;27.05;;
36189;SDS011;22232;50.914;13.858;2022-12-17T13:41:52;86.53;;;28.15;;
36189;SDS011;22232;50.914;13.858;2022-12-17T13:44:24;92.88;;;29.30;;
36189;SDS011;22232;50.914;13.858;2022-12-17T13:46:55;102.72;;;29.70;;
36189;SDS011;22232;50.914;13.858;2022-12-17T13:49:27;84.47;;;27.48;;
36189;SDS011;22232;50.914;13.858;2022-12-17T13:52:03;90.20;;;29.00;;
36189;SDS011;22232;50.914;13.858;2022-12-17T13:54:37;104.95;;;30.42;;
36189;SDS011;22232;50.914;13.858;2022-12-17T13:57:09;86.45;;;29.13;;
36189;SDS011;22232;50.914;13.858;2022-12-17T13:59:40;92.22;;;30.42;;
36189;SDS011;22232;50.914;13.858;2022-12-17T14:02:24;102.60;;;31.83;;
36189;SDS011;22232;50.914;13.858;2022-12-17T14:04:57;86.28;;;29.08;;
36189;SDS011;22232;50.914;13.858;2022-12-17T14:07:36;100.80;;;31.60;;
36189;SDS011;22232;50.914;13.858;2022-12-17T14:10:11;85.60;;;29.65;;
36189;SDS011;22232;50.914;13.858;2022-12-17T14:12:42;84.47;;;29.30;;
36189;SDS011;22232;50.914;13.858;2022-12-17T14:17:54;78.40;;;28.05;;
36189;SDS011;22232;50.914;13.858;2022-12-17T14:20:24;95.03;;;31.50;;
36189;SDS011;22232;50.914;13.858;2022-12-17T14:22:57;93.97;;;33.25;;
36189;SDS011;22232;50.914;13.858;2022-12-17T14:25:28;90.70;;;31.92;;
36189;SDS011;22232;50.914;13.858;2022-12-17T14:28:03;99.00;;;33.10;;
36189;SDS011;22232;50.914;13.858;2022-12-17T14:30:36;89.07;;;31.85;;
36189;SDS011;22232;50.914;13.858;2022-12-17T14:33:29;93.07;;;33.47;;
36189;SDS011;22232;50.914;13.858;2022-12-17T14:35:59;96.68;;;33.55;;
36189;SDS011;22232;50.914;13.858;2022-12-17T14:38:31;93.32;;;32.38;;
36189;SDS011;22232;50.914;13.858;2022-12-17T14:41:12;82.20;;;29.50;;
36189;SDS011;22232;50.914;13.858;2022-12-17T14:43:59;85.50;;;29.05;;
36189;SDS011;22232;50.914;13.858;2022-12-17T14:46:29;75.65;;;29.35;;
36189;SDS011;22232;50.914;13.858;2022-12-17T14:48:58;80.22;;;29.48;;
36189;SDS011;22232;50.914;13.858;2022-12-17T14:51:30;75.47;;;29.08;;
36189;SDS011;22232;50.914;13.858;2022-12-17T14:56:58;71.75;;;28.30;;
36189;SDS011;22232;50.914;13.858;2022-12-17T14:59:32;75.75;;;26.00;;
36189;SDS011;22232;50.914;13.858;2022-12-17T15:04:35;67.18;;;26.23;;
36189;SDS011;22232;50.914;13.858;2022-12-17T15:07:04;67.15;;;24.45;;
36189;SDS011;22232;50.914;13.858;2022-12-17T15:09:40;70.18;;;25.15;;
36189;SDS011;22232;50.914;13.858;2022-12-17T15:12:08;68.53;;;25.23;;
36189;SDS011;22232;50.914;13.858;2022-12-17T15:14:36;58.90;;;23.77;;
36189;SDS011;22232;50.914;13.858;2022-12-17T15:17:04;66.15;;;25.85;;
36189;SDS011;22232;50.914;13.858;2022-12-17T15:19:32;70.93;;;27.33;;
36189;SDS011;22232;50.914;13.858;2022-12-17T15:21:59;83.55;;;31.85;;
36189;SDS011;22232;50.914;13.858;2022-12-17T15:24:27;84.95;;;33.13;;
36189;SDS011;22232;50.914;13.858;2022-12-17T15:26:54;79.38;;;32.75;;
36189;SDS011;22232;50.914;13.858;2022-12-17T15:29:23;76.13;;;31.33;;
36189;SDS011;22232;50.914;13.858;2022-12-17T15:31:50;79.18;;;32.25;;
36189;SDS011;22232;50.914;13.858;2022-12-17T15:34:18;74.53;;;30.60;;
36189;SDS011;22232;50.914;13.858;2022-12-17T15:36:45;74.15;;;28.80;;
36189;SDS011;22232;50.914;13.858;2022-12-17T15:39:13;66.68;;;27.40;;
36189;SDS011;22232;50.914;13.858;2022-12-17T15:41:40;74.90;;;30.40;;
36189;SDS011;22232;50.914;13.858;2022-12-17T15:44:26;72.63;;;28.88;;
36189;SDS011;22232;50.914;13.858;2022-12-17T15:46:54;71.63;;;27.58;;
36189;SDS011;22232;50.914;13.858;2022-12-17T15:49:24;71.55;;;28.10;;
36189;SDS011;22232;50.914;13.858;2022-12-17T15:51:52;72.15;;;28.73;;
36189;SDS011;22232;50.914;13.858;2022-12-17T15:54:19;78.85;;;28.88;;
36189;SDS011;22232;50.914;13.858;2022-12-17T15:56:51;63.20;;;27.10;;
36189;SDS011;22232;50.914;13.858;2022-12-17T15:59:20;67.88;;;28.70;;
36189;SDS011;22232;50.914;13.858;2022-12-17T16:01:48;68.68;;;27.15;;
36189;SDS011;22232;50.914;13.858;2022-12-17T16:04:16;71.63;;;27.27;;
36189;SDS011;22232;50.914;13.858;2022-12-17T16:06:51;68.50;;;26.80;;
36189;SDS011;22232;50.914;13.858;2022-12-17T16:09:18;65.82;;;25.85;;
36189;SDS011;22232;50.914;13.858;2022-12-17T16:11:53;69.90;;;24.95;;
36189;SDS011;22232;50.914;13.858;2022-12-17T16:14:22;62.70;;;25.65;;
36189;SDS011;22232;50.914;13.858;2022-12-17T16:16:52;66.82;;;25.50;;
36189;SDS011;22232;50.914;13.858;2022-12-17T16:19:20;66.18;;;27.02;;
36189;SDS011;22232;50.914;13.858;2022-12-17T16:21:48;60.20;;;25.75;;
36189;SDS011;22232;50.914;13.858;2022-12-17T16:24:16;65.82;;;25.42;;
36189;SDS011;22232;50.914;13.858;2022-12-17T16:26:43;64.18;;;25.73;;
36189;SDS011;22232;50.914;13.858;2022-12-17T16:29:11;60.70;;;27.08;;
36189;SDS011;22232;50.914;13.858;2022-12-17T16:31:38;63.85;;;26.35;;
36189;SDS011;22232;50.914;13.858;2022-12-17T16:34:09;74.13;;;27.67;;
36189;SDS011;22232;50.914;13.858;2022-12-17T16:36:37;73.55;;;29.08;;
36189;SDS011;22232;50.914;13.858;2022-12-17T16:39:05;71.07;;;27.83;;
36189;SDS011;22232;50.914;13.858;2022-12-17T16:41:33;66.95;;;26.80;;
36189;SDS011;22232;50.914;13.858;2022-12-17T16:44:00;69.32;;;28.73;;
36189;SDS011;22232;50.914;13.858;2022-12-17T16:46:29;68.30;;;27.50;;
36189;SDS011;22232;50.914;13.858;2022-12-17T16:49:43;72.53;;;30.27;;
36189;SDS011;22232;50.914;13.858;2022-12-17T16:51:50;72.10;;;30.85;;
36189;SDS011;22232;50.914;13.858;2022-12-17T16:54:20;79.47;;;30.45;;
36189;SDS011;22232;50.914;13.858;2022-12-17T16:56:49;68.13;;;29.60;;
36189;SDS011;22232;50.914;13.858;2022-12-17T16:59:17;97.15;;;38.00;;
36189;SDS011;22232;50.914;13.858;2022-12-17T17:01:46;81.38;;;34.22;;